createdAt,value
2023-02-16T00:01:32.067Z,40.10
2023-02-16T00:04:00.308Z,34.30
2023-02-16T00:06:29.781Z,35.07
2023-02-16T00:08:58.524Z,37.70
2023-02-16T00:11:50.530Z,39.40
2023-02-16T00:14:22.731Z,32.53
2023-02-16T00:16:51.133Z,31.30
2023-02-16T00:19:22.523Z,34.37
2023-02-16T00:21:52.269Z,46.03
2023-02-16T00:24:20.708Z,37.83
2023-02-16T00:26:51.039Z,36.33
2023-02-16T00:29:24.433Z,34.00
2023-02-16T00:31:53.266Z,40.17
2023-02-16T00:34:31.153Z,51.00
2023-02-16T00:37:01.324Z,40.97
2023-02-16T00:39:29.961Z,44.93
2023-02-16T00:42:02.317Z,38.37
2023-02-16T00:44:36.578Z,32.50
2023-02-16T00:47:14.326Z,35.53
2023-02-16T00:49:42.662Z,39.50
2023-02-16T00:52:28.954Z,35.57
2023-02-16T00:54:57.447Z,42.40
2023-02-16T00:57:28.857Z,39.50
2023-02-16T01:00:01.903Z,64.80
2023-02-16T01:02:30.962Z,41.90
2023-02-16T01:04:59.082Z,31.97
2023-02-16T01:07:44.366Z,39.90
2023-02-16T01:10:30.265Z,37.10
2023-02-16T01:13:00.003Z,38.33
2023-02-16T01:15:28.394Z,38.77
2023-02-16T01:17:56.917Z,36.20
2023-02-16T01:20:28.950Z,37.90
2023-02-16T01:22:57.622Z,39.23
2023-02-16T01:25:26.200Z,40.07
2023-02-16T01:27:54.300Z,36.50
2023-02-16T01:30:25.607Z,39.57
2023-02-16T01:32:54.297Z,46.47
2023-02-16T01:35:23.414Z,39.50
2023-02-16T01:37:52.238Z,38.40
2023-02-16T01:40:32.216Z,37.27
2023-02-16T01:43:05.638Z,43.33
2023-02-16T01:45:39.045Z,33.23
2023-02-16T01:48:15.097Z,30.67
2023-02-16T01:50:50.023Z,33.63
2023-02-16T01:53:25.291Z,35.60
2023-02-16T01:55:59.427Z,41.90
2023-02-16T01:58:37.316Z,30.93
2023-02-16T02:01:39.323Z,36.60
2023-02-16T02:04:38.486Z,36.57
2023-02-16T02:07:06.979Z,35.07
2023-02-16T02:09:43.134Z,36.40
2023-02-16T02:12:19.976Z,38.30
2023-02-16T02:14:49.240Z,39.70
2023-02-16T02:17:22.498Z,36.87
2023-02-16T02:20:00.901Z,39.90
2023-02-16T02:23:33.362Z,42.20
2023-02-16T02:26:55.506Z,39.13
2023-02-16T02:29:43.769Z,37.70
2023-02-16T02:32:23.594Z,37.73
2023-02-16T02:35:05.508Z,31.77
2023-02-16T02:37:45.484Z,35.37
2023-02-16T02:40:22.587Z,42.67
2023-02-16T02:43:02.333Z,39.60
2023-02-16T02:45:35.987Z,41.73
2023-02-16T02:48:04.398Z,33.87
2023-02-16T02:51:07.104Z,38.30
2023-02-16T02:53:39.327Z,37.27
2023-02-16T02:56:26.664Z,39.80
2023-02-16T02:59:16.478Z,35.30
2023-02-16T03:01:52.535Z,38.53
2023-02-16T03:04:26.252Z,36.70
2023-02-16T03:06:57.259Z,40.97
2023-02-16T03:09:26.533Z,37.93
2023-02-16T03:12:16.475Z,44.50
2023-02-16T03:14:47.492Z,46.20
2023-02-16T03:17:36.255Z,47.50
2023-02-16T03:20:25.345Z,34.80
2023-02-16T03:23:11.213Z,34.33
2023-02-16T03:25:58.260Z,40.10
2023-02-16T03:28:45.776Z,28.80
2023-02-16T03:31:17.646Z,35.00
2023-02-16T03:33:54.904Z,30.40
2023-02-16T03:36:23.910Z,28.33
2023-02-16T03:38:53.050Z,30.87
2023-02-16T03:41:21.484Z,27.07
2023-02-16T03:43:49.802Z,36.10
2023-02-16T03:46:18.194Z,32.97
2023-02-16T03:48:48.071Z,26.30
2023-02-16T03:51:16.707Z,26.13
2023-02-16T03:53:44.947Z,29.17
2023-02-16T03:56:13.128Z,24.17
2023-02-16T03:58:41.547Z,24.90
2023-02-16T04:01:09.993Z,22.87
2023-02-16T04:03:38.419Z,30.03
2023-02-16T04:06:08.772Z,25.30
2023-02-16T04:08:37.441Z,23.87
2023-02-16T04:11:27.316Z,33.53
2023-02-16T04:13:54.403Z,18.53
2023-02-16T04:16:23.061Z,23.57
2023-02-16T04:18:51.336Z,21.97
2023-02-16T04:21:21.134Z,18.80
2023-02-16T04:23:49.449Z,18.87
2023-02-16T04:26:17.668Z,21.33
2023-02-16T04:28:45.924Z,21.33
2023-02-16T04:31:14.368Z,19.53
2023-02-16T04:33:42.679Z,21.47
2023-02-16T04:36:11.552Z,24.87
2023-02-16T04:38:41.277Z,21.17
2023-02-16T04:41:09.542Z,22.87
2023-02-16T04:43:37.746Z,21.20
2023-02-16T04:46:06.228Z,20.83
2023-02-16T04:48:34.432Z,19.77
2023-02-16T04:51:05.572Z,23.93
2023-02-16T04:53:33.994Z,26.10
2023-02-16T04:56:03.787Z,20.27
2023-02-16T04:58:32.039Z,19.60
2023-02-16T05:01:00.281Z,20.93
2023-02-16T05:03:28.699Z,21.07
2023-02-16T05:05:57.380Z,22.30
2023-02-16T05:08:25.716Z,25.87
2023-02-16T05:11:07.725Z,19.63
2023-02-16T05:13:54.632Z,23.57
2023-02-16T05:16:23.524Z,17.87
2023-02-16T05:18:52.038Z,21.63
2023-02-16T05:21:32.292Z,17.57
2023-02-16T05:24:01.568Z,20.97
2023-02-16T05:26:30.088Z,24.63
2023-02-16T05:29:00.172Z,25.33
2023-02-16T05:31:29.706Z,24.23
2023-02-16T05:33:58.062Z,16.60
2023-02-16T05:36:26.457Z,26.17
2023-02-16T05:38:54.598Z,22.13
2023-02-16T05:41:25.378Z,19.10
2023-02-16T05:43:54.807Z,18.80
2023-02-16T05:46:25.617Z,20.97
2023-02-16T05:48:54.299Z,19.70
2023-02-16T05:51:23.079Z,17.47
2023-02-16T05:53:51.250Z,19.97
2023-02-16T05:56:20.161Z,19.00
2023-02-16T05:58:48.645Z,19.10
2023-02-16T06:01:16.935Z,21.37
2023-02-16T06:03:46.778Z,17.17
2023-02-16T06:06:15.321Z,16.17
2023-02-16T06:08:43.505Z,19.70
2023-02-16T06:11:32.809Z,16.57
2023-02-16T06:14:02.691Z,16.77
2023-02-16T06:16:32.288Z,15.83
2023-02-16T06:19:02.341Z,22.80
2023-02-16T06:21:30.553Z,24.43
2023-02-16T06:23:59.054Z,23.33
2023-02-16T06:26:27.784Z,19.97
2023-02-16T06:29:00.394Z,23.97
2023-02-16T06:31:29.935Z,25.70
2023-02-16T06:34:06.660Z,21.77
2023-02-16T06:36:42.425Z,19.00
2023-02-16T06:39:10.966Z,18.53
2023-02-16T06:42:04.401Z,24.70
2023-02-16T06:44:32.830Z,23.67
2023-02-16T06:47:01.177Z,22.50
2023-02-16T06:49:29.530Z,23.97
2023-02-16T06:51:59.604Z,19.47
2023-02-16T06:54:28.078Z,20.47
2023-02-16T06:56:56.360Z,20.67
2023-02-16T06:59:24.635Z,19.33
2023-02-16T07:01:52.822Z,20.83
2023-02-16T07:04:21.114Z,16.17
2023-02-16T07:06:49.977Z,22.30
2023-02-16T07:09:19.625Z,21.23
2023-02-16T07:11:48.487Z,16.67
2023-02-16T07:14:17.320Z,17.50
2023-02-16T07:16:45.676Z,19.60
2023-02-16T07:19:14.024Z,19.47
2023-02-16T07:21:42.343Z,14.30
2023-02-16T07:24:14.610Z,19.40
2023-02-16T07:26:47.184Z,16.57
2023-02-16T07:29:15.483Z,17.97
2023-02-16T07:31:43.753Z,17.88
2023-02-16T07:34:12.162Z,15.17
2023-02-16T07:36:40.352Z,16.48
2023-02-16T07:39:08.683Z,17.87
2023-02-16T07:41:36.997Z,14.27
2023-02-16T07:44:07.482Z,20.37
2023-02-16T07:46:35.861Z,14.35
2023-02-16T07:49:04.647Z,16.07
2023-02-16T07:51:33.441Z,16.33
2023-02-16T07:54:02.056Z,14.95
2023-02-16T07:56:32.835Z,16.77
2023-02-16T07:59:02.939Z,19.17
2023-02-16T08:01:35.570Z,28.50
2023-02-16T08:04:07.304Z,16.50
2023-02-16T08:06:36.212Z,12.45
2023-02-16T08:09:04.772Z,14.50
2023-02-16T08:11:33.563Z,12.82
2023-02-16T08:14:08.150Z,15.50
2023-02-16T08:18:29.887Z,14.43
2023-02-16T08:21:15.888Z,12.38
2023-02-16T08:23:58.657Z,11.88
2023-02-16T08:26:29.783Z,26.63
2023-02-16T08:28:59.796Z,19.83
2023-02-16T08:31:30.474Z,12.73
2023-02-16T08:34:03.171Z,11.45
2023-02-16T08:36:36.206Z,16.70
2023-02-16T08:39:06.903Z,20.25
2023-02-16T08:41:37.498Z,13.68
2023-02-16T08:44:06.787Z,13.75
2023-02-16T08:46:36.198Z,12.82
2023-02-16T08:49:06.348Z,17.08
2023-02-16T08:51:38.164Z,13.30
2023-02-16T08:54:09.299Z,19.63
2023-02-16T08:56:38.071Z,12.77
2023-02-16T08:59:09.626Z,13.80
2023-02-16T09:01:43.771Z,16.33
2023-02-16T09:04:14.466Z,16.48
2023-02-16T09:06:45.298Z,11.98
2023-02-16T09:09:14.744Z,18.48
2023-02-16T09:11:43.358Z,12.25
2023-02-16T09:14:12.222Z,12.30
2023-02-16T09:16:46.068Z,14.05
2023-02-16T09:19:20.753Z,12.45
2023-02-16T09:21:51.083Z,13.32
2023-02-16T09:24:19.744Z,12.73
2023-02-16T09:26:48.090Z,14.18
2023-02-16T09:29:16.462Z,14.05
2023-02-16T09:31:45.860Z,12.00
2023-02-16T09:34:29.978Z,16.50
2023-02-16T09:37:00.673Z,11.23
2023-02-16T09:39:31.881Z,16.65
2023-02-16T09:42:24.542Z,14.52
2023-02-16T09:44:59.633Z,17.63
2023-02-16T09:47:33.907Z,18.83
2023-02-16T09:50:14.657Z,21.33
2023-02-16T09:52:52.535Z,22.75
2023-02-16T09:55:22.666Z,18.63
2023-02-16T09:58:04.368Z,21.50
2023-02-16T10:00:46.114Z,19.15
2023-02-16T10:03:26.076Z,21.85
2023-02-16T10:06:05.694Z,28.77
2023-02-16T10:08:43.237Z,19.67
2023-02-16T10:11:32.121Z,20.83
2023-02-16T10:14:06.533Z,18.83
2023-02-16T10:16:41.995Z,26.75
2023-02-16T10:19:21.496Z,24.25
2023-02-16T10:21:55.429Z,22.20
2023-02-16T10:24:25.488Z,21.80
2023-02-16T10:27:02.399Z,28.90
2023-02-16T10:29:30.714Z,23.25
2023-02-16T10:32:09.116Z,24.35
2023-02-16T10:34:49.028Z,22.15
2023-02-16T10:37:32.177Z,28.65
2023-02-16T10:40:21.634Z,29.15
2023-02-16T10:42:57.342Z,22.38
2023-02-16T10:45:31.953Z,23.85
2023-02-16T10:48:00.544Z,28.33
2023-02-16T10:50:33.148Z,26.83
2023-02-16T10:53:08.241Z,24.48
2023-02-16T10:55:38.291Z,22.58
2023-02-16T10:58:14.802Z,23.45
2023-02-16T11:00:51.830Z,19.50
2023-02-16T11:03:24.234Z,20.23
2023-02-16T11:05:53.628Z,22.45
2023-02-16T11:08:25.870Z,20.23
2023-02-16T11:10:55.430Z,30.73
2023-02-16T11:13:33.985Z,22.83
2023-02-16T11:16:07.413Z,18.35
2023-02-16T11:18:39.794Z,22.15
2023-02-16T11:21:10.220Z,16.42
2023-02-16T11:23:41.435Z,20.77
2023-02-16T11:26:24.800Z,16.95
2023-02-16T11:28:53.804Z,19.30
2023-02-16T11:31:28.513Z,17.27
2023-02-16T11:34:00.071Z,23.30
2023-02-16T11:36:34.612Z,19.35
2023-02-16T11:39:10.934Z,22.15
2023-02-16T11:41:39.348Z,17.83
2023-02-16T11:44:28.977Z,18.33
2023-02-16T11:46:58.635Z,23.83
2023-02-16T11:49:35.833Z,27.98
2023-02-16T11:52:22.303Z,23.33
2023-02-16T11:54:55.941Z,21.10
2023-02-16T11:57:28.622Z,21.30
2023-02-16T11:59:57.617Z,22.35
2023-02-16T12:02:57.088Z,22.90
2023-02-16T12:05:28.447Z,24.42
2023-02-16T12:08:14.964Z,22.65
2023-02-16T12:10:56.520Z,22.65
2023-02-16T12:13:33.085Z,22.13
2023-02-16T12:16:09.157Z,23.52
2023-02-16T12:18:44.356Z,24.15
2023-02-16T12:21:19.424Z,25.23
2023-02-16T12:23:59.613Z,21.90
2023-02-16T12:26:39.267Z,28.50
2023-02-16T12:29:28.442Z,23.65
2023-02-16T12:32:12.023Z,49.30
2023-02-16T12:34:53.974Z,23.77
2023-02-16T12:37:31.043Z,25.67
2023-02-16T12:40:08.062Z,22.58
2023-02-16T12:42:55.306Z,22.80
2023-02-16T12:45:29.072Z,22.65
2023-02-16T12:48:01.962Z,25.67
2023-02-16T12:50:32.675Z,27.35
2023-02-16T12:53:08.804Z,22.63
2023-02-16T12:55:46.867Z,19.80
2023-02-16T12:58:22.245Z,22.50
2023-02-16T13:00:58.785Z,21.23
2023-02-16T13:03:35.841Z,22.05
2023-02-16T13:06:13.541Z,22.10
2023-02-16T13:08:47.589Z,24.27
2023-02-16T13:11:22.585Z,20.95
2023-02-16T13:13:54.706Z,29.08
2023-02-16T13:16:30.752Z,26.02
2023-02-16T13:18:59.625Z,21.30
2023-02-16T13:21:55.836Z,23.23
2023-02-16T13:24:39.041Z,24.60
2023-02-16T13:27:22.238Z,24.58
2023-02-16T13:30:10.473Z,18.27
2023-02-16T13:32:56.071Z,19.63
2023-02-16T13:35:54.090Z,22.33
2023-02-16T13:38:54.958Z,17.70
2023-02-16T13:41:58.519Z,23.70
2023-02-16T13:44:36.594Z,20.60
2023-02-16T13:47:09.753Z,30.02
2023-02-16T13:49:43.166Z,23.10
2023-02-16T13:52:13.085Z,25.15
2023-02-16T13:54:43.944Z,22.60
2023-02-16T13:57:15.993Z,24.73
2023-02-16T14:00:05.659Z,21.25
2023-02-16T14:02:55.775Z,33.83
2023-02-16T14:05:31.216Z,26.05
2023-02-16T14:08:21.898Z,18.35
2023-02-16T14:11:14.158Z,23.13
2023-02-16T14:13:48.622Z,22.70
2023-02-16T14:16:31.623Z,20.80
2023-02-16T14:19:03.988Z,23.23
2023-02-16T14:21:43.262Z,21.95
2023-02-16T14:24:24.820Z,24.15
2023-02-16T14:26:56.599Z,30.40
2023-02-16T14:29:34.064Z,22.38
2023-02-16T14:32:07.778Z,18.10
2023-02-16T14:34:46.685Z,22.27
2023-02-16T14:37:36.854Z,17.05
2023-02-16T14:40:20.210Z,21.83
2023-02-16T14:42:53.628Z,19.13
2023-02-16T14:46:07.155Z,19.50
2023-02-16T14:49:19.522Z,19.35
2023-02-16T14:52:22.189Z,29.20
2023-02-16T14:55:07.246Z,32.65
2023-02-16T14:57:41.001Z,23.20
2023-02-16T15:00:19.694Z,20.65
2023-02-16T15:02:58.176Z,21.95
2023-02-16T15:05:29.730Z,23.90
2023-02-16T15:08:09.655Z,23.98
2023-02-16T15:10:46.595Z,26.67
2023-02-16T15:13:21.165Z,21.77
2023-02-16T15:15:51.681Z,38.75
2023-02-16T15:18:23.161Z,31.98
2023-02-16T15:20:54.947Z,22.15
2023-02-16T15:23:26.324Z,32.35
2023-02-16T15:25:58.782Z,42.55
2023-02-16T15:28:29.629Z,28.85
2023-02-16T15:30:59.853Z,32.60
2023-02-16T15:33:34.332Z,32.17
2023-02-16T15:36:08.915Z,32.95
2023-02-16T15:38:40.845Z,35.25
2023-02-16T15:41:10.861Z,33.10
2023-02-16T15:43:45.693Z,33.15
2023-02-16T15:46:17.080Z,29.80
2023-02-16T15:48:46.123Z,34.22
2023-02-16T15:51:18.717Z,28.52
2023-02-16T15:53:54.056Z,32.92
2023-02-16T15:56:38.884Z,50.95
2023-02-16T15:59:29.126Z,28.17
2023-02-16T16:02:00.258Z,31.48
2023-02-16T16:04:29.404Z,35.55
2023-02-16T16:07:00.098Z,34.67
2023-02-16T16:09:32.981Z,26.80
2023-02-16T16:12:05.848Z,32.38
2023-02-16T16:14:37.137Z,26.88
2023-02-16T16:17:06.146Z,29.98
2023-02-16T16:19:37.067Z,37.30
2023-02-16T16:22:17.994Z,44.22
2023-02-16T16:24:48.742Z,39.97
2023-02-16T16:27:28.699Z,29.50
2023-02-16T16:30:12.225Z,26.60
2023-02-16T16:32:40.744Z,26.13
2023-02-16T16:35:22.990Z,30.73
2023-02-16T16:37:53.702Z,35.22
2023-02-16T16:40:26.649Z,35.38
2023-02-16T16:43:17.610Z,29.30
2023-02-16T16:45:47.294Z,27.85
2023-02-16T16:48:23.390Z,27.55
2023-02-16T16:50:51.787Z,26.42
2023-02-16T16:53:44.143Z,36.08
2023-02-16T16:56:15.697Z,30.58
2023-02-16T16:58:43.969Z,25.73
2023-02-16T17:01:14.013Z,30.35
2023-02-16T17:03:42.522Z,28.33
2023-02-16T17:06:11.005Z,26.40
2023-02-16T17:08:39.410Z,24.75
2023-02-16T17:11:09.498Z,30.33
2023-02-16T17:13:39.253Z,30.70
2023-02-16T17:16:12.243Z,38.22
2023-02-16T17:18:40.957Z,23.30
2023-02-16T17:21:11.908Z,37.75
2023-02-16T17:23:50.427Z,33.42
2023-02-16T17:26:21.192Z,32.72
2023-02-16T17:28:51.143Z,32.67
2023-02-16T17:31:19.443Z,27.23
2023-02-16T17:33:47.753Z,26.17
2023-02-16T17:36:16.888Z,27.42
2023-02-16T17:38:45.757Z,34.22
2023-02-16T17:41:22.018Z,28.27
2023-02-16T17:43:54.307Z,28.98
2023-02-16T17:46:24.885Z,23.67
2023-02-16T17:48:55.264Z,28.25
2023-02-16T17:51:25.692Z,30.83
2023-02-16T17:53:54.048Z,27.75
2023-02-16T17:56:24.271Z,23.98
2023-02-16T17:58:58.441Z,28.20
2023-02-16T18:01:29.127Z,28.90
2023-02-16T18:03:57.791Z,34.67
2023-02-16T18:06:28.949Z,27.42
2023-02-16T18:08:57.553Z,20.98
2023-02-16T18:11:26.259Z,28.30
2023-02-16T18:13:56.154Z,34.20
2023-02-16T18:16:28.190Z,28.83
2023-02-16T18:18:57.473Z,34.03
2023-02-16T18:21:26.258Z,22.60
2023-02-16T18:23:54.496Z,36.38
2023-02-16T18:26:26.166Z,23.80
2023-02-16T18:28:59.434Z,37.55
2023-02-16T18:31:27.768Z,37.00
2023-02-16T18:33:56.138Z,28.80
2023-02-16T18:36:24.431Z,32.72
2023-02-16T18:38:52.882Z,39.45
2023-02-16T18:41:24.193Z,29.70
2023-02-16T18:43:54.519Z,35.92
2023-02-16T18:46:24.497Z,30.65
2023-02-16T18:48:53.052Z,33.00
2023-02-16T18:51:23.667Z,32.33
2023-02-16T18:53:52.049Z,33.90
2023-02-16T18:56:20.337Z,34.80
2023-02-16T18:58:48.584Z,35.83
2023-02-16T19:01:24.898Z,30.90
2023-02-16T19:04:01.048Z,33.92
2023-02-16T19:06:29.531Z,49.30
2023-02-16T19:08:59.066Z,29.42
2023-02-16T19:11:30.801Z,32.60
2023-02-16T19:13:59.165Z,40.78
2023-02-16T19:16:27.408Z,34.33
2023-02-16T19:18:57.244Z,27.42
2023-02-16T19:21:25.581Z,29.65
2023-02-16T19:23:53.957Z,29.90
2023-02-16T19:26:22.941Z,34.08
2023-02-16T19:28:51.186Z,33.50
2023-02-16T19:31:22.334Z,31.48
2023-02-16T19:33:57.876Z,29.73
2023-02-16T19:36:30.149Z,15.70
2023-02-16T19:38:58.699Z,10.32
2023-02-16T19:41:29.961Z,9.82
2023-02-16T19:43:58.249Z,17.20
2023-02-16T19:46:26.870Z,9.55
2023-02-16T19:48:56.005Z,9.65
2023-02-16T19:51:25.212Z,8.48
2023-02-16T19:53:59.490Z,16.58
2023-02-16T19:56:28.862Z,7.18
2023-02-16T19:58:59.273Z,7.80
2023-02-16T20:01:29.920Z,8.30
2023-02-16T20:04:00.198Z,9.00
2023-02-16T20:06:31.050Z,13.18
2023-02-16T20:09:02.108Z,8.48
2023-02-16T20:11:31.558Z,11.13
2023-02-16T20:14:00.486Z,9.55
2023-02-16T20:16:29.279Z,15.43
2023-02-16T20:18:58.914Z,12.13
2023-02-16T20:21:30.541Z,11.38
2023-02-16T20:24:09.633Z,10.50
2023-02-16T20:26:40.665Z,8.45
2023-02-16T20:29:11.137Z,9.70
2023-02-16T20:31:42.206Z,9.30
2023-02-16T20:34:11.498Z,11.98
2023-02-16T20:36:42.960Z,9.63
2023-02-16T20:39:16.081Z,12.20
2023-02-16T20:41:44.955Z,11.27
2023-02-16T20:44:14.107Z,7.68
2023-02-16T20:46:42.941Z,15.13
2023-02-16T20:49:12.158Z,7.40
2023-02-16T20:51:41.378Z,7.15
2023-02-16T20:54:09.917Z,8.40
2023-02-16T20:56:40.644Z,10.68
2023-02-16T20:59:09.439Z,8.65
2023-02-16T21:01:40.578Z,8.65
2023-02-16T21:04:14.634Z,7.90
2023-02-16T21:06:43.112Z,12.02
2023-02-16T21:09:12.599Z,7.68
2023-02-16T21:11:43.125Z,11.30
2023-02-16T21:14:13.164Z,9.50
2023-02-16T21:16:42.112Z,7.70
2023-02-16T21:19:21.216Z,17.90
2023-02-16T21:21:51.420Z,8.18
2023-02-16T21:24:21.846Z,7.90
2023-02-16T21:26:51.594Z,8.20
2023-02-16T21:29:19.845Z,6.10
2023-02-16T21:31:48.235Z,9.68
2023-02-16T21:34:16.549Z,8.68
2023-02-16T21:36:44.945Z,10.18
2023-02-16T21:39:15.382Z,10.07
2023-02-16T21:41:44.582Z,8.15
2023-02-16T21:44:16.030Z,11.50
2023-02-16T21:46:45.735Z,10.57
2023-02-16T21:49:14.332Z,9.52
2023-02-16T21:51:44.263Z,5.72
2023-02-16T21:54:14.803Z,9.38
2023-02-16T21:56:43.732Z,18.13
2023-02-16T21:59:17.747Z,7.53
2023-02-16T22:01:53.038Z,10.95
2023-02-16T22:04:22.949Z,11.27
2023-02-16T22:06:52.457Z,16.23
2023-02-16T22:09:22.928Z,12.98
2023-02-16T22:11:51.842Z,11.48
2023-02-16T22:14:21.481Z,25.52
2023-02-16T22:16:50.890Z,16.33
2023-02-16T22:19:26.567Z,14.88
2023-02-16T22:21:54.893Z,12.40
2023-02-16T22:24:23.318Z,16.60
2023-02-16T22:26:51.797Z,14.20
2023-02-16T22:29:21.625Z,16.70
2023-02-16T22:31:50.611Z,11.18
2023-02-16T22:34:21.144Z,13.15
2023-02-16T22:36:49.785Z,9.32
2023-02-16T22:39:19.265Z,14.27
2023-02-16T22:41:49.926Z,8.25
2023-02-16T22:44:18.240Z,9.50
2023-02-16T22:46:48.393Z,9.77
2023-02-16T22:49:22.459Z,7.32
2023-02-16T22:51:50.939Z,18.65
2023-02-16T22:54:19.228Z,9.43
2023-02-16T22:56:47.603Z,8.13
2023-02-16T22:59:16.032Z,11.57
2023-02-16T23:01:44.470Z,9.48
2023-02-16T23:04:16.622Z,9.10
2023-02-16T23:06:46.176Z,7.93
2023-02-16T23:09:18.688Z,10.18
2023-02-16T23:11:48.979Z,9.15
2023-02-16T23:14:17.849Z,9.82
2023-02-16T23:16:47.027Z,7.25
2023-02-16T23:19:18.226Z,24.15
2023-02-16T23:21:47.201Z,9.23
2023-02-16T23:24:17.884Z,26.20
2023-02-16T23:26:49.256Z,10.15
2023-02-16T23:29:23.369Z,9.43
2023-02-16T23:31:52.437Z,10.05
2023-02-16T23:34:22.696Z,11.02
2023-02-16T23:36:51.080Z,8.88
2023-02-16T23:39:20.089Z,10.10
2023-02-16T23:41:48.447Z,13.57
2023-02-16T23:44:16.841Z,13.70
2023-02-16T23:46:45.130Z,18.60
2023-02-16T23:49:13.577Z,16.20
2023-02-16T23:51:43.426Z,12.20
2023-02-16T23:54:12.322Z,18.85
2023-02-16T23:56:44.440Z,32.28
2023-02-16T23:59:14.891Z,13.80
